sensor_id;sensor_type;location;lat;lon;timestamp;pressure;altitude;pressure_sealevel;temperature;humidity
33432;BME280;35187;31.882;34.828;2023-06-22T00:00:31;100280;;;24;61
33432;BME280;35187;31.882;34.828;2023-06-22T00:03:00;100280;;;24;61
33432;BME280;35187;31.882;34.828;2023-06-22T00:05:29;100280;;;24;60
33432;BME280;35187;31.882;34.828;2023-06-22T00:08:01;100270;;;23;60
33432;BME280;35187;31.882;34.828;2023-06-22T00:10:30;100270;;;24;60
33432;BME280;35187;31.882;34.828;2023-06-22T00:13:00;100270;;;24;60
33432;BME280;35187;31.882;34.828;2023-06-22T00:15:29;100280;;;24;60
33432;BME280;35187;31.882;34.828;2023-06-22T00:17:58;100270;;;24;60
33432;BME280;35187;31.882;34.828;2023-06-22T00:20:27;100270;;;24;60
33432;BME280;35187;31.882;34.828;2023-06-22T00:22:58;100280;;;24;60
33432;BME280;35187;31.882;34.828;2023-06-22T00:25:27;100280;;;24;60
33432;BME280;35187;31.882;34.828;2023-06-22T00:27:56;100280;;;24;60
33432;BME280;35187;31.882;34.828;2023-06-22T00:30:25;100280;;;24;60
33432;BME280;35187;31.882;34.828;2023-06-22T00:32:54;100280;;;24;60
33432;BME280;35187;31.882;34.828;2023-06-22T00:35:23;100280;;;24;60
33432;BME280;35187;31.882;34.828;2023-06-22T00:37:51;100280;;;24;60
33432;BME280;35187;31.882;34.828;2023-06-22T00:40:21;100270;;;24;60
33432;BME280;35187;31.882;34.828;2023-06-22T00:42:50;100270;;;24;60
33432;BME280;35187;31.882;34.828;2023-06-22T00:45:19;100270;;;24;60
33432;BME280;35187;31.882;34.828;2023-06-22T00:47:48;100270;;;24;60
33432;BME280;35187;31.882;34.828;2023-06-22T00:50:19;100270;;;24;60
33432;BME280;35187;31.882;34.828;2023-06-22T00:52:51;100270;;;24;60
33432;BME280;35187;31.882;34.828;2023-06-22T00:55:21;100270;;;23;60
33432;BME280;35187;31.882;34.828;2023-06-22T00:57:50;100280;;;24;60
33432;BME280;35187;31.882;34.828;2023-06-22T01:00:20;100280;;;24;60
33432;BME280;35187;31.882;34.828;2023-06-22T01:02:49;100280;;;24;60
33432;BME280;35187;31.882;34.828;2023-06-22T01:05:18;100280;;;24;60
33432;BME280;35187;31.882;34.828;2023-06-22T01:07:56;100280;;;24;60
33432;BME280;35187;31.882;34.828;2023-06-22T01:10:34;100280;;;24;60
33432;BME280;35187;31.882;34.828;2023-06-22T01:13:11;100280;;;24;60
33432;BME280;35187;31.882;34.828;2023-06-22T01:15:46;100270;;;24;60
33432;BME280;35187;31.882;34.828;2023-06-22T01:18:19;100280;;;24;60
33432;BME280;35187;31.882;34.828;2023-06-22T01:20:50;100280;;;24;60
33432;BME280;35187;31.882;34.828;2023-06-22T01:23:27;100270;;;24;60
33432;BME280;35187;31.882;34.828;2023-06-22T01:26:05;100280;;;23;60
33432;BME280;35187;31.882;34.828;2023-06-22T01:28:42;100280;;;24;61
33432;BME280;35187;31.882;34.828;2023-06-22T01:31:15;100280;;;23;61
33432;BME280;35187;31.882;34.828;2023-06-22T01:33:48;100280;;;23;61
33432;BME280;35187;31.882;34.828;2023-06-22T01:36:19;100280;;;24;61
33432;BME280;35187;31.882;34.828;2023-06-22T01:38:50;100290;;;24;60
33432;BME280;35187;31.882;34.828;2023-06-22T01:41:20;100290;;;24;61
33432;BME280;35187;31.882;34.828;2023-06-22T01:43:49;100290;;;24;61
33432;BME280;35187;31.882;34.828;2023-06-22T01:46:18;100290;;;24;60
33432;BME280;35187;31.882;34.828;2023-06-22T01:48:49;100290;;;24;60
33432;BME280;35187;31.882;34.828;2023-06-22T01:51:19;100290;;;24;60
33432;BME280;35187;31.882;34.828;2023-06-22T01:53:48;100290;;;24;60
33432;BME280;35187;31.882;34.828;2023-06-22T01:56:17;100300;;;23;60
33432;BME280;35187;31.882;34.828;2023-06-22T01:58:50;100300;;;24;60
33432;BME280;35187;31.882;34.828;2023-06-22T02:01:27;100290;;;24;60
33432;BME280;35187;31.882;34.828;2023-06-22T02:04:04;100300;;;24;60
33432;BME280;35187;31.882;34.828;2023-06-22T02:06:37;100300;;;24;60
33432;BME280;35187;31.882;34.828;2023-06-22T02:09:09;100300;;;23;60
33432;BME280;35187;31.882;34.828;2023-06-22T02:11:42;100300;;;23;60
33432;BME280;35187;31.882;34.828;2023-06-22T02:14:13;100300;;;23;60
33432;BME280;35187;31.882;34.828;2023-06-22T02:16:43;100300;;;23;60
33432;BME280;35187;31.882;34.828;2023-06-22T02:19:13;100310;;;23;60
33432;BME280;35187;31.882;34.828;2023-06-22T02:21:42;100300;;;23;60
33432;BME280;35187;31.882;34.828;2023-06-22T02:24:11;100300;;;23;60
33432;BME280;35187;31.882;34.828;2023-06-22T02:26:39;100300;;;23;60
33432;BME280;35187;31.882;34.828;2023-06-22T02:29:09;100300;;;23;60
33432;BME280;35187;31.882;34.828;2023-06-22T02:31:37;100310;;;23;60
33432;BME280;35187;31.882;34.828;2023-06-22T02:34:06;100310;;;23;60
33432;BME280;35187;31.882;34.828;2023-06-22T02:36:35;100310;;;23;60
33432;BME280;35187;31.882;34.828;2023-06-22T02:39:04;100310;;;23;60
33432;BME280;35187;31.882;34.828;2023-06-22T02:41:32;100310;;;23;60
33432;BME280;35187;31.882;34.828;2023-06-22T02:44:01;100310;;;23;60
33432;BME280;35187;31.882;34.828;2023-06-22T02:46:30;100310;;;23;59
33432;BME280;35187;31.882;34.828;2023-06-22T02:48:59;100310;;;23;59
33432;BME280;35187;31.882;34.828;2023-06-22T02:51:27;100310;;;23;59
33432;BME280;35187;31.882;34.828;2023-06-22T02:53:56;100310;;;24;59
33432;BME280;35187;31.882;34.828;2023-06-22T02:56:25;100310;;;23;59
33432;BME280;35187;31.882;34.828;2023-06-22T02:58:53;100310;;;23;59
33432;BME280;35187;31.882;34.828;2023-06-22T03:01:22;100310;;;23;60
33432;BME280;35187;31.882;34.828;2023-06-22T03:03:51;100310;;;23;59
33432;BME280;35187;31.882;34.828;2023-06-22T03:06:20;100310;;;23;59
33432;BME280;35187;31.882;34.828;2023-06-22T03:08:48;100310;;;23;59
33432;BME280;35187;31.882;34.828;2023-06-22T03:11:17;100310;;;23;59
33432;BME280;35187;31.882;34.828;2023-06-22T03:13:46;100320;;;23;59
33432;BME280;35187;31.882;34.828;2023-06-22T03:16:15;100320;;;23;59
33432;BME280;35187;31.882;34.828;2023-06-22T03:18:44;100320;;;23;59
33432;BME280;35187;31.882;34.828;2023-06-22T03:21:13;100320;;;23;59
33432;BME280;35187;31.882;34.828;2023-06-22T03:23:42;100320;;;23;59
33432;BME280;35187;31.882;34.828;2023-06-22T03:26:10;100320;;;23;59
33432;BME280;35187;31.882;34.828;2023-06-22T03:28:39;100320;;;23;59
33432;BME280;35187;31.882;34.828;2023-06-22T03:31:08;100320;;;23;59
33432;BME280;35187;31.882;34.828;2023-06-22T03:33:37;100330;;;23;59
33432;BME280;35187;31.882;34.828;2023-06-22T03:36:06;100330;;;23;59
33432;BME280;35187;31.882;34.828;2023-06-22T03:38:36;100330;;;23;59
33432;BME280;35187;31.882;34.828;2023-06-22T03:41:05;100340;;;23;59
33432;BME280;35187;31.882;34.828;2023-06-22T03:43:34;100340;;;23;59
33432;BME280;35187;31.882;34.828;2023-06-22T03:46:03;100340;;;23;59
33432;BME280;35187;31.882;34.828;2023-06-22T03:48:32;100340;;;23;59
33432;BME280;35187;31.882;34.828;2023-06-22T03:51:01;100340;;;23;59
33432;BME280;35187;31.882;34.828;2023-06-22T03:53:31;100350;;;23;59
33432;BME280;35187;31.882;34.828;2023-06-22T03:56:00;100350;;;23;59
33432;BME280;35187;31.882;34.828;2023-06-22T03:58:29;100350;;;23;58
33432;BME280;35187;31.882;34.828;2023-06-22T04:00:58;100350;;;23;58
33432;BME280;35187;31.882;34.828;2023-06-22T04:03:48;100350;;;23;58
33432;BME280;35187;31.882;34.828;2023-06-22T04:06:20;100350;;;23;59
33432;BME280;35187;31.882;34.828;2023-06-22T04:08:50;100350;;;23;59
33432;BME280;35187;31.882;34.828;2023-06-22T04:11:24;100350;;;24;59
33432;BME280;35187;31.882;34.828;2023-06-22T04:13:54;100350;;;23;58
33432;BME280;35187;31.882;34.828;2023-06-22T04:19:18;100340;;;23;59
33432;BME280;35187;31.882;34.828;2023-06-22T04:21:47;100340;;;23;59
33432;BME280;35187;31.882;34.828;2023-06-22T04:24:40;100340;;;23;59
33432;BME280;35187;31.882;34.828;2023-06-22T04:27:15;100340;;;24;59
33432;BME280;35187;31.882;34.828;2023-06-22T04:29:44;100350;;;24;59
33432;BME280;35187;31.882;34.828;2023-06-22T04:32:28;100350;;;24;58
33432;BME280;35187;31.882;34.828;2023-06-22T04:35:20;100350;;;24;58
33432;BME280;35187;31.882;34.828;2023-06-22T04:37:49;100350;;;24;58
33432;BME280;35187;31.882;34.828;2023-06-22T04:41:17;100350;;;24;58
33432;BME280;35187;31.882;34.828;2023-06-22T04:43:46;100340;;;23;58
33432;BME280;35187;31.882;34.828;2023-06-22T04:46:15;100340;;;24;58
33432;BME280;35187;31.882;34.828;2023-06-22T04:48:44;100340;;;23;59
33432;BME280;35187;31.882;34.828;2023-06-22T04:51:13;100340;;;23;56
33432;BME280;35187;31.882;34.828;2023-06-22T04:53:43;100340;;;23;53
33432;BME280;35187;31.882;34.828;2023-06-22T04:56:13;100350;;;23;59
33432;BME280;35187;31.882;34.828;2023-06-22T04:58:41;100350;;;23;61
33432;BME280;35187;31.882;34.828;2023-06-22T05:01:10;100350;;;23;63
33432;BME280;35187;31.882;34.828;2023-06-22T05:03:39;100350;;;23;63
33432;BME280;35187;31.882;34.828;2023-06-22T05:06:09;100350;;;23;63
33432;BME280;35187;31.882;34.828;2023-06-22T05:08:38;100340;;;23;59
33432;BME280;35187;31.882;34.828;2023-06-22T05:11:06;100350;;;23;53
33432;BME280;35187;31.882;34.828;2023-06-22T05:13:35;100340;;;23;59
33432;BME280;35187;31.882;34.828;2023-06-22T05:16:04;100340;;;23;62
33432;BME280;35187;31.882;34.828;2023-06-22T05:18:46;100340;;;23;64
33432;BME280;35187;31.882;34.828;2023-06-22T05:21:16;100340;;;23;64
33432;BME280;35187;31.882;34.828;2023-06-22T05:23:45;100340;;;24;61
33432;BME280;35187;31.882;34.828;2023-06-22T05:26:14;100340;;;23;53
33432;BME280;35187;31.882;34.828;2023-06-22T05:28:43;100350;;;23;59
33432;BME280;35187;31.882;34.828;2023-06-22T05:31:14;100340;;;23;62
33432;BME280;35187;31.882;34.828;2023-06-22T05:33:43;100350;;;23;62
33432;BME280;35187;31.882;34.828;2023-06-22T05:36:13;100350;;;23;62
33432;BME280;35187;31.882;34.828;2023-06-22T05:38:42;100350;;;23;61
33432;BME280;35187;31.882;34.828;2023-06-22T05:41:11;100350;;;24;61
33432;BME280;35187;31.882;34.828;2023-06-22T05:43:40;100350;;;24;61
33432;BME280;35187;31.882;34.828;2023-06-22T05:46:09;100350;;;23;61
33432;BME280;35187;31.882;34.828;2023-06-22T05:48:38;100350;;;24;61
33432;BME280;35187;31.882;34.828;2023-06-22T05:51:07;100350;;;23;61
33432;BME280;35187;31.882;34.828;2023-06-22T05:53:35;100350;;;23;61
33432;BME280;35187;31.882;34.828;2023-06-22T05:56:04;100350;;;23;61
33432;BME280;35187;31.882;34.828;2023-06-22T05:58:33;100350;;;24;60
33432;BME280;35187;31.882;34.828;2023-06-22T06:01:02;100350;;;24;60
33432;BME280;35187;31.882;34.828;2023-06-22T06:03:31;100350;;;23;60
33432;BME280;35187;31.882;34.828;2023-06-22T06:06:00;100340;;;24;60
33432;BME280;35187;31.882;34.828;2023-06-22T06:08:29;100350;;;24;60
33432;BME280;35187;31.882;34.828;2023-06-22T06:10:58;100350;;;24;60
33432;BME280;35187;31.882;34.828;2023-06-22T06:13:26;100340;;;24;60
33432;BME280;35187;31.882;34.828;2023-06-22T06:15:56;100340;;;23;60
33432;BME280;35187;31.882;34.828;2023-06-22T06:18:25;100350;;;24;60
33432;BME280;35187;31.882;34.828;2023-06-22T06:20:54;100350;;;24;60
33432;BME280;35187;31.882;34.828;2023-06-22T06:23:23;100350;;;24;60
33432;BME280;35187;31.882;34.828;2023-06-22T06:25:52;100350;;;24;60
33432;BME280;35187;31.882;34.828;2023-06-22T06:28:21;100350;;;24;60
33432;BME280;35187;31.882;34.828;2023-06-22T06:30:50;100350;;;24;60
33432;BME280;35187;31.882;34.828;2023-06-22T06:33:19;100350;;;24;60
33432;BME280;35187;31.882;34.828;2023-06-22T06:35:48;100350;;;23;60
33432;BME280;35187;31.882;34.828;2023-06-22T06:38:17;100350;;;24;60
33432;BME280;35187;31.882;34.828;2023-06-22T06:40:46;100350;;;23;60
33432;BME280;35187;31.882;34.828;2023-06-22T06:43:15;100340;;;24;60
33432;BME280;35187;31.882;34.828;2023-06-22T06:45:44;100340;;;24;60
33432;BME280;35187;31.882;34.828;2023-06-22T06:48:13;100340;;;24;53
33432;BME280;35187;31.882;34.828;2023-06-22T06:50:42;100340;;;23;57
33432;BME280;35187;31.882;34.828;2023-06-22T06:53:11;100340;;;23;61
33432;BME280;35187;31.882;34.828;2023-06-22T06:55:40;100350;;;24;62
33432;BME280;35187;31.882;34.828;2023-06-22T06:58:08;100340;;;24;63
33432;BME280;35187;31.882;34.828;2023-06-22T07:00:37;100340;;;24;63
33432;BME280;35187;31.882;34.828;2023-06-22T07:03:06;100340;;;23;54
33432;BME280;35187;31.882;34.828;2023-06-22T07:05:35;100340;;;23;58
33432;BME280;35187;31.882;34.828;2023-06-22T07:08:04;100340;;;23;62
33432;BME280;35187;31.882;34.828;2023-06-22T07:10:35;100340;;;23;62
33432;BME280;35187;31.882;34.828;2023-06-22T07:13:05;100340;;;23;62
33432;BME280;35187;31.882;34.828;2023-06-22T07:15:34;100340;;;23;61
33432;BME280;35187;31.882;34.828;2023-06-22T07:18:03;100330;;;23;61
33432;BME280;35187;31.882;34.828;2023-06-22T07:20:32;100340;;;23;61
33432;BME280;35187;31.882;34.828;2023-06-22T07:23:01;100330;;;24;61
33432;BME280;35187;31.882;34.828;2023-06-22T07:25:30;100330;;;24;61
33432;BME280;35187;31.882;34.828;2023-06-22T07:27:59;100330;;;23;60
33432;BME280;35187;31.882;34.828;2023-06-22T07:30:29;100330;;;23;60
33432;BME280;35187;31.882;34.828;2023-06-22T07:32:58;100330;;;23;60
33432;BME280;35187;31.882;34.828;2023-06-22T07:35:28;100320;;;24;60
33432;BME280;35187;31.882;34.828;2023-06-22T07:37:56;100320;;;24;60
33432;BME280;35187;31.882;34.828;2023-06-22T07:40:25;100320;;;24;60
33432;BME280;35187;31.882;34.828;2023-06-22T07:42:54;100320;;;24;60
33432;BME280;35187;31.882;34.828;2023-06-22T07:45:23;100320;;;24;60
33432;BME280;35187;31.882;34.828;2023-06-22T07:47:52;100310;;;23;60
33432;BME280;35187;31.882;34.828;2023-06-22T07:50:21;100310;;;23;60
33432;BME280;35187;31.882;34.828;2023-06-22T07:52:50;100310;;;24;60
33432;BME280;35187;31.882;34.828;2023-06-22T07:55:18;100310;;;24;60
33432;BME280;35187;31.882;34.828;2023-06-22T07:57:48;100310;;;24;60
33432;BME280;35187;31.882;34.828;2023-06-22T08:00:18;100310;;;23;60
33432;BME280;35187;31.882;34.828;2023-06-22T08:02:47;100310;;;24;60
33432;BME280;35187;31.882;34.828;2023-06-22T08:05:16;100310;;;24;60
33432;BME280;35187;31.882;34.828;2023-06-22T08:07:47;100310;;;24;60
33432;BME280;35187;31.882;34.828;2023-06-22T08:10:16;100310;;;24;60
33432;BME280;35187;31.882;34.828;2023-06-22T08:12:46;100310;;;24;60
33432;BME280;35187;31.882;34.828;2023-06-22T08:15:15;100310;;;24;60
33432;BME280;35187;31.882;34.828;2023-06-22T08:17:44;100300;;;24;60
33432;BME280;35187;31.882;34.828;2023-06-22T08:20:13;100300;;;24;60
33432;BME280;35187;31.882;34.828;2023-06-22T08:22:43;100300;;;24;60
33432;BME280;35187;31.882;34.828;2023-06-22T08:25:12;100310;;;23;60
33432;BME280;35187;31.882;34.828;2023-06-22T08:27:40;100300;;;24;60
33432;BME280;35187;31.882;34.828;2023-06-22T08:30:13;100300;;;24;60
33432;BME280;35187;31.882;34.828;2023-06-22T08:32:42;100300;;;24;60
33432;BME280;35187;31.882;34.828;2023-06-22T08:35:11;100300;;;24;60
33432;BME280;35187;31.882;34.828;2023-06-22T08:37:39;100300;;;24;60
33432;BME280;35187;31.882;34.828;2023-06-22T08:40:24;100310;;;24;60
33432;BME280;35187;31.882;34.828;2023-06-22T08:45:43;100300;;;24;60
33432;BME280;35187;31.882;34.828;2023-06-22T08:48:12;100300;;;24;59
33432;BME280;35187;31.882;34.828;2023-06-22T08:50:41;100290;;;24;59
33432;BME280;35187;31.882;34.828;2023-06-22T08:53:10;100300;;;24;59
33432;BME280;35187;31.882;34.828;2023-06-22T08:55:39;100290;;;24;59
33432;BME280;35187;31.882;34.828;2023-06-22T08:58:08;100290;;;24;59
33432;BME280;35187;31.882;34.828;2023-06-22T09:00:43;100290;;;24;59
33432;BME280;35187;31.882;34.828;2023-06-22T09:03:12;100290;;;24;59
33432;BME280;35187;31.882;34.828;2023-06-22T09:05:41;100290;;;24;59
33432;BME280;35187;31.882;34.828;2023-06-22T09:08:11;100290;;;24;59
33432;BME280;35187;31.882;34.828;2023-06-22T09:10:40;100300;;;24;59
33432;BME280;35187;31.882;34.828;2023-06-22T09:13:19;100300;;;24;59
33432;BME280;35187;31.882;34.828;2023-06-22T09:15:48;100300;;;24;59
33432;BME280;35187;31.882;34.828;2023-06-22T09:18:17;100290;;;24;59
33432;BME280;35187;31.882;34.828;2023-06-22T09:20:46;100300;;;24;59
33432;BME280;35187;31.882;34.828;2023-06-22T09:23:15;100290;;;24;59
33432;BME280;35187;31.882;34.828;2023-06-22T09:25:50;100280;;;24;59
33432;BME280;35187;31.882;34.828;2023-06-22T09:28:19;100290;;;24;59
33432;BME280;35187;31.882;34.828;2023-06-22T09:30:48;100280;;;24;59
33432;BME280;35187;31.882;34.828;2023-06-22T09:33:39;100280;;;24;59
33432;BME280;35187;31.882;34.828;2023-06-22T09:36:08;100270;;;24;59
33432;BME280;35187;31.882;34.828;2023-06-22T09:38:38;100270;;;24;59
33432;BME280;35187;31.882;34.828;2023-06-22T09:41:07;100270;;;24;59
33432;BME280;35187;31.882;34.828;2023-06-22T09:43:35;100270;;;24;59
33432;BME280;35187;31.882;34.828;2023-06-22T09:46:05;100270;;;24;59
33432;BME280;35187;31.882;34.828;2023-06-22T09:48:33;100270;;;24;59
33432;BME280;35187;31.882;34.828;2023-06-22T09:51:05;100270;;;24;59
33432;BME280;35187;31.882;34.828;2023-06-22T09:53:34;100260;;;24;59
33432;BME280;35187;31.882;34.828;2023-06-22T09:56:03;100260;;;24;59
33432;BME280;35187;31.882;34.828;2023-06-22T09:58:32;100260;;;24;59
33432;BME280;35187;31.882;34.828;2023-06-22T10:01:02;100260;;;24;59
33432;BME280;35187;31.882;34.828;2023-06-22T10:03:51;100260;;;24;59
33432;BME280;35187;31.882;34.828;2023-06-22T10:06:20;100250;;;24;59
33432;BME280;35187;31.882;34.828;2023-06-22T10:08:52;100250;;;24;59
33432;BME280;35187;31.882;34.828;2023-06-22T10:11:21;100250;;;24;59
33432;BME280;35187;31.882;34.828;2023-06-22T10:13:50;100250;;;24;59
33432;BME280;35187;31.882;34.828;2023-06-22T10:16:19;100260;;;24;59
33432;BME280;35187;31.882;34.828;2023-06-22T10:18:47;100250;;;24;59
33432;BME280;35187;31.882;34.828;2023-06-22T10:21:16;100260;;;24;58
33432;BME280;35187;31.882;34.828;2023-06-22T10:23:46;100250;;;24;58
33432;BME280;35187;31.882;34.828;2023-06-22T10:26:15;100260;;;24;58
33432;BME280;35187;31.882;34.828;2023-06-22T10:28:44;100250;;;24;58
33432;BME280;35187;31.882;34.828;2023-06-22T10:31:12;100250;;;24;58
33432;BME280;35187;31.882;34.828;2023-06-22T10:33:41;100250;;;24;58
33432;BME280;35187;31.882;34.828;2023-06-22T10:36:17;100250;;;24;58
33432;BME280;35187;31.882;34.828;2023-06-22T10:38:45;100240;;;24;58
33432;BME280;35187;31.882;34.828;2023-06-22T10:41:14;100240;;;24;58
33432;BME280;35187;31.882;34.828;2023-06-22T10:43:43;100240;;;24;58
33432;BME280;35187;31.882;34.828;2023-06-22T10:46:12;100240;;;24;58
33432;BME280;35187;31.882;34.828;2023-06-22T10:48:41;100240;;;24;58
33432;BME280;35187;31.882;34.828;2023-06-22T10:51:10;100240;;;24;58
33432;BME280;35187;31.882;34.828;2023-06-22T10:53:39;100240;;;24;58
33432;BME280;35187;31.882;34.828;2023-06-22T10:56:08;100240;;;24;58
33432;BME280;35187;31.882;34.828;2023-06-22T10:58:36;100240;;;24;58
33432;BME280;35187;31.882;34.828;2023-06-22T11:01:05;100240;;;24;58
33432;BME280;35187;31.882;34.828;2023-06-22T11:03:45;100240;;;25;58
33432;BME280;35187;31.882;34.828;2023-06-22T11:06:15;100240;;;24;58
33432;BME280;35187;31.882;34.828;2023-06-22T11:08:44;100230;;;24;58
33432;BME280;35187;31.882;34.828;2023-06-22T11:11:14;100230;;;24;58
33432;BME280;35187;31.882;34.828;2023-06-22T11:13:43;100230;;;24;58
33432;BME280;35187;31.882;34.828;2023-06-22T11:16:12;100230;;;24;59
33432;BME280;35187;31.882;34.828;2023-06-22T11:18:42;100230;;;24;59
33432;BME280;35187;31.882;34.828;2023-06-22T11:21:11;100230;;;24;59
33432;BME280;35187;31.882;34.828;2023-06-22T11:23:41;100230;;;24;59
33432;BME280;35187;31.882;34.828;2023-06-22T11:26:11;100230;;;24;59
33432;BME280;35187;31.882;34.828;2023-06-22T11:28:39;100230;;;24;59
33432;BME280;35187;31.882;34.828;2023-06-22T11:31:10;100220;;;24;59
33432;BME280;35187;31.882;34.828;2023-06-22T11:33:41;100220;;;24;59
33432;BME280;35187;31.882;34.828;2023-06-22T11:36:10;100220;;;24;59
33432;BME280;35187;31.882;34.828;2023-06-22T11:38:54;100220;;;24;59
33432;BME280;35187;31.882;34.828;2023-06-22T11:41:23;100220;;;25;59
33432;BME280;35187;31.882;34.828;2023-06-22T11:43:52;100220;;;24;59
33432;BME280;35187;31.882;34.828;2023-06-22T11:46:22;100230;;;24;59
33432;BME280;35187;31.882;34.828;2023-06-22T11:48:52;100230;;;24;59
33432;BME280;35187;31.882;34.828;2023-06-22T11:51:21;100230;;;24;59
33432;BME280;35187;31.882;34.828;2023-06-22T11:53:50;100220;;;24;59
33432;BME280;35187;31.882;34.828;2023-06-22T11:56:19;100220;;;24;59
33432;BME280;35187;31.882;34.828;2023-06-22T11:58:47;100220;;;24;59
33432;BME280;35187;31.882;34.828;2023-06-22T12:01:16;100220;;;24;59
33432;BME280;35187;31.882;34.828;2023-06-22T12:03:45;100220;;;24;59
33432;BME280;35187;31.882;34.828;2023-06-22T12:06:14;100220;;;24;59
33432;BME280;35187;31.882;34.828;2023-06-22T12:08:42;100220;;;24;60
33432;BME280;35187;31.882;34.828;2023-06-22T12:11:12;100220;;;24;60
33432;BME280;35187;31.882;34.828;2023-06-22T12:13:41;100220;;;24;60
33432;BME280;35187;31.882;34.828;2023-06-22T12:16:10;100220;;;24;60
33432;BME280;35187;31.882;34.828;2023-06-22T12:18:38;100220;;;24;60
33432;BME280;35187;31.882;34.828;2023-06-22T12:21:07;100220;;;24;60
33432;BME280;35187;31.882;34.828;2023-06-22T12:23:36;100220;;;24;60
33432;BME280;35187;31.882;34.828;2023-06-22T12:26:06;100220;;;24;60
33432;BME280;35187;31.882;34.828;2023-06-22T12:28:35;100220;;;24;60
33432;BME280;35187;31.882;34.828;2023-06-22T12:31:04;100210;;;24;60
33432;BME280;35187;31.882;34.828;2023-06-22T12:33:33;100210;;;24;60
33432;BME280;35187;31.882;34.828;2023-06-22T12:36:02;100210;;;25;60
33432;BME280;35187;31.882;34.828;2023-06-22T12:38:31;100210;;;24;60
33432;BME280;35187;31.882;34.828;2023-06-22T12:41:00;100200;;;24;59
33432;BME280;35187;31.882;34.828;2023-06-22T12:43:29;100210;;;24;53
33432;BME280;35187;31.882;34.828;2023-06-22T12:45:58;100210;;;24;58
33432;BME280;35187;31.882;34.828;2023-06-22T12:48:27;100210;;;24;61
33432;BME280;35187;31.882;34.828;2023-06-22T12:50:56;100210;;;24;63
33432;BME280;35187;31.882;34.828;2023-06-22T12:53:25;100210;;;24;56
33432;BME280;35187;31.882;34.828;2023-06-22T12:55:54;100210;;;24;57
33432;BME280;35187;31.882;34.828;2023-06-22T12:58:24;100210;;;24;61
33432;BME280;35187;31.882;34.828;2023-06-22T13:00:53;100210;;;23;63
33432;BME280;35187;31.882;34.828;2023-06-22T13:03:22;100210;;;24;64
33432;BME280;35187;31.882;34.828;2023-06-22T13:05:51;100210;;;24;57
33432;BME280;35187;31.882;34.828;2023-06-22T13:08:21;100210;;;24;58
33432;BME280;35187;31.882;34.828;2023-06-22T13:10:49;100210;;;23;62
33432;BME280;35187;31.882;34.828;2023-06-22T13:13:18;100200;;;23;64
33432;BME280;35187;31.882;34.828;2023-06-22T13:15:47;100200;;;24;65
33432;BME280;35187;31.882;34.828;2023-06-22T13:18:16;100210;;;23;59
33432;BME280;35187;31.882;34.828;2023-06-22T13:20:45;100200;;;24;58
33432;BME280;35187;31.882;34.828;2023-06-22T13:23:14;100200;;;23;58
33432;BME280;35187;31.882;34.828;2023-06-22T13:25:43;100200;;;24;59
33432;BME280;35187;31.882;34.828;2023-06-22T13:28:12;100200;;;24;59
33432;BME280;35187;31.882;34.828;2023-06-22T13:30:41;100200;;;24;59
33432;BME280;35187;31.882;34.828;2023-06-22T13:33:10;100200;;;24;60
33432;BME280;35187;31.882;34.828;2023-06-22T13:35:39;100190;;;23;60
33432;BME280;35187;31.882;34.828;2023-06-22T13:38:07;100190;;;23;60
33432;BME280;35187;31.882;34.828;2023-06-22T13:40:36;100190;;;24;60
33432;BME280;35187;31.882;34.828;2023-06-22T13:43:05;100190;;;24;60
33432;BME280;35187;31.882;34.828;2023-06-22T13:45:35;100190;;;24;60
33432;BME280;35187;31.882;34.828;2023-06-22T13:48:05;100180;;;24;60
33432;BME280;35187;31.882;34.828;2023-06-22T13:50:34;100180;;;24;60
33432;BME280;35187;31.882;34.828;2023-06-22T13:53:03;100180;;;24;60
33432;BME280;35187;31.882;34.828;2023-06-22T13:55:32;100180;;;24;60
33432;BME280;35187;31.882;34.828;2023-06-22T13:58:00;100180;;;24;60
33432;BME280;35187;31.882;34.828;2023-06-22T14:00:29;100170;;;24;60
33432;BME280;35187;31.882;34.828;2023-06-22T14:02:58;100170;;;24;60
33432;BME280;35187;31.882;34.828;2023-06-22T14:05:39;100170;;;24;60
33432;BME280;35187;31.882;34.828;2023-06-22T14:08:09;100170;;;24;60
33432;BME280;35187;31.882;34.828;2023-06-22T14:10:39;100170;;;24;59
33432;BME280;35187;31.882;34.828;2023-06-22T14:13:08;100170;;;24;59
33432;BME280;35187;31.882;34.828;2023-06-22T14:15:37;100170;;;24;59
33432;BME280;35187;31.882;34.828;2023-06-22T14:18:06;100170;;;24;59
33432;BME280;35187;31.882;34.828;2023-06-22T14:20:34;100170;;;24;59
33432;BME280;35187;31.882;34.828;2023-06-22T14:23:03;100170;;;24;56
33432;BME280;35187;31.882;34.828;2023-06-22T14:25:32;100170;;;24;54
33432;BME280;35187;31.882;34.828;2023-06-22T14:28:01;100170;;;24;58
33432;BME280;35187;31.882;34.828;2023-06-22T14:30:30;100170;;;24;61
33432;BME280;35187;31.882;34.828;2023-06-22T14:33:11;100170;;;24;58
33432;BME280;35187;31.882;34.828;2023-06-22T14:35:40;100170;;;24;54
33432;BME280;35187;31.882;34.828;2023-06-22T14:38:09;100170;;;24;59
33432;BME280;35187;31.882;34.828;2023-06-22T14:40:46;100170;;;24;61
33432;BME280;35187;31.882;34.828;2023-06-22T14:43:33;100170;;;24;63